createdAt,value
2019-05-21T00:02:34.070Z,79
2019-05-21T00:08:02.756Z,79
2019-05-21T00:13:30.696Z,80
2019-05-21T00:18:58.112Z,80
2019-05-21T00:24:26.667Z,80
2019-05-21T00:29:54.400Z,80
2019-05-21T00:35:21.986Z,80
2019-05-21T00:40:49.661Z,81
2019-05-21T00:46:17.186Z,80
2019-05-21T00:51:44.704Z,80
2019-05-21T00:57:12.306Z,80
2019-05-21T01:02:39.869Z,80
2019-05-21T01:08:08.427Z,80
2019-05-21T01:13:35.997Z,80
2019-05-21T01:19:03.579Z,80
2019-05-21T01:24:31.406Z,80
2019-05-21T01:29:59.626Z,80
2019-05-21T01:35:28.216Z,81
2019-05-21T01:40:56.658Z,81
2019-05-21T01:46:25.219Z,82
2019-05-21T01:51:53.655Z,82
2019-05-21T01:57:24.378Z,82
2019-05-21T02:02:50.961Z,82
2019-05-21T02:08:22.145Z,82
2019-05-21T02:13:47.634Z,82
2019-05-21T02:19:15.572Z,82
2019-05-21T02:24:43.935Z,83
2019-05-21T02:30:12.216Z,83
2019-05-21T02:35:53.328Z,83
2019-05-21T02:41:09.109Z,83
2019-05-21T02:46:36.762Z,82
2019-05-21T02:52:04.230Z,82
2019-05-21T02:57:32.709Z,83
2019-05-21T03:03:00.332Z,83
2019-05-21T03:08:28.090Z,83
2019-05-21T03:13:56.440Z,83
2019-05-21T03:19:23.789Z,83
2019-05-21T03:24:53.156Z,83
2019-05-21T03:30:19.875Z,83
2019-05-21T03:35:47.450Z,84
2019-05-21T03:41:14.866Z,84
2019-05-21T03:46:42.334Z,84
2019-05-21T03:52:09.888Z,85
2019-05-21T03:57:38.371Z,85
2019-05-21T04:03:06.956Z,85
2019-05-21T04:08:34.332Z,85
2019-05-21T04:14:03.390Z,85
2019-05-21T04:19:31.884Z,85
2019-05-21T04:24:59.785Z,85
2019-05-21T04:30:28.289Z,85
2019-05-21T04:35:56.797Z,86
2019-05-21T04:41:25.173Z,86
2019-05-21T04:46:52.738Z,87
2019-05-21T04:52:20.259Z,87
2019-05-21T04:57:47.558Z,87
2019-05-21T05:03:16.097Z,87
2019-05-21T05:08:43.467Z,87
2019-05-21T05:14:10.974Z,87
2019-05-21T05:19:39.401Z,88
2019-05-21T05:25:07.086Z,88
2019-05-21T05:30:35.338Z,87
2019-05-21T05:41:31.106Z,88
2019-05-21T05:46:57.638Z,88
2019-05-21T05:52:34.006Z,88
2019-05-21T05:57:54.492Z,88
2019-05-21T06:03:22.982Z,89
2019-05-21T06:08:50.867Z,88
2019-05-21T06:14:18.799Z,89
2019-05-21T06:19:53.352Z,89
2019-05-21T06:25:13.671Z,89
2019-05-21T06:30:41.461Z,89
2019-05-21T06:36:08.568Z,89
2019-05-21T06:41:36.992Z,89
2019-05-21T06:47:04.419Z,89
2019-05-21T06:52:33.059Z,88
2019-05-21T06:58:00.725Z,88
2019-05-21T07:03:27.880Z,88
2019-05-21T07:08:56.459Z,87
2019-05-21T07:14:24.917Z,87
2019-05-21T07:19:53.520Z,87
2019-05-21T07:25:21.985Z,87
2019-05-21T07:30:49.392Z,86
2019-05-21T07:36:17.939Z,86
2019-05-21T07:41:46.479Z,85
2019-05-21T07:47:14.990Z,85
2019-05-21T07:52:42.572Z,85
2019-05-21T07:58:10.139Z,85
2019-05-21T08:03:37.686Z,85
2019-05-21T08:09:13.009Z,84
2019-05-21T08:14:33.923Z,84
2019-05-21T08:20:08.974Z,84
2019-05-21T08:25:30.199Z,82
2019-05-21T08:31:00.057Z,83
2019-05-21T08:36:25.261Z,83
2019-05-21T08:41:53.125Z,83
2019-05-21T08:47:20.512Z,83
2019-05-21T08:52:55.978Z,83
2019-05-21T08:58:17.779Z,82
2019-05-21T09:03:46.360Z,82
2019-05-21T09:09:13.959Z,82
2019-05-21T09:14:42.679Z,81
2019-05-21T09:20:10.804Z,81
2019-05-21T09:25:38.074Z,80
2019-05-21T09:31:05.749Z,81
2019-05-21T09:36:33.403Z,80
2019-05-21T09:42:02.464Z,80
2019-05-21T09:47:31.314Z,80
2019-05-21T09:52:59.419Z,79
2019-05-21T09:58:28.255Z,79
2019-05-21T10:03:56.906Z,78
2019-05-21T10:09:26.515Z,77
2019-05-21T10:14:54.674Z,75
2019-05-21T10:20:23.414Z,76
2019-05-21T10:25:52.532Z,76
2019-05-21T10:31:21.512Z,76
2019-05-21T10:36:48.952Z,75
2019-05-21T10:42:16.851Z,76
2019-05-21T10:47:44.624Z,75
2019-05-21T10:53:13.691Z,74
2019-05-21T10:58:41.511Z,73
2019-05-21T11:04:10.491Z,71
2019-05-21T11:09:38.455Z,71
2019-05-21T11:15:07.445Z,70
2019-05-21T11:20:36.380Z,69
2019-05-21T11:26:05.650Z,69
2019-05-21T11:31:33.363Z,70
2019-05-21T11:37:01.400Z,71
2019-05-21T11:42:30.634Z,70
2019-05-21T11:47:58.429Z,71
2019-05-21T11:53:31.096Z,71
2019-05-21T11:58:56.366Z,72
2019-05-21T12:04:25.299Z,72
2019-05-21T12:09:53.239Z,73
2019-05-21T12:15:21.352Z,72
2019-05-21T12:20:49.293Z,72
2019-05-21T12:26:18.166Z,72
2019-05-21T12:31:46.197Z,72
2019-05-21T12:37:15.600Z,71
2019-05-21T12:42:45.754Z,71
2019-05-21T12:48:12.152Z,69
2019-05-21T12:53:40.065Z,71
2019-05-21T12:59:09.061Z,71
2019-05-21T13:04:37.096Z,71
2019-05-21T13:10:06.108Z,71
2019-05-21T13:15:35.107Z,72
2019-05-21T13:21:04.025Z,72
2019-05-21T13:26:35.014Z,71
2019-05-21T13:32:02.015Z,72
2019-05-21T13:37:37.153Z,72
2019-05-21T13:42:58.937Z,73
2019-05-21T13:48:28.005Z,74
2019-05-21T13:53:55.959Z,74
2019-05-21T13:59:24.951Z,74
2019-05-21T14:04:53.709Z,75
2019-05-21T14:10:23.412Z,75
2019-05-21T14:15:51.630Z,76
2019-05-21T14:21:19.377Z,76
2019-05-21T14:26:48.327Z,77
2019-05-21T14:32:16.182Z,78
2019-05-21T14:37:45.021Z,78
2019-05-21T14:43:13.002Z,78
2019-05-21T14:48:41.043Z,79
2019-05-21T14:54:25.263Z,78
2019-05-21T14:59:38.650Z,77
2019-05-21T15:05:06.355Z,78
2019-05-21T15:10:47.630Z,78
2019-05-21T15:16:04.140Z,78
2019-05-21T15:21:31.827Z,78
2019-05-21T15:27:00.689Z,77
2019-05-21T15:32:29.750Z,78
2019-05-21T15:37:57.682Z,77
2019-05-21T15:43:26.126Z,78
2019-05-21T15:48:53.955Z,77
2019-05-21T15:54:22.074Z,77
2019-05-21T15:59:50.498Z,78
2019-05-21T16:05:19.294Z,78
2019-05-21T16:10:46.955Z,78
2019-05-21T16:16:15.890Z,78
2019-05-21T16:21:43.544Z,78
2019-05-21T16:27:11.194Z,79
2019-05-21T16:32:38.979Z,78
2019-05-21T16:38:07.658Z,78
2019-05-21T16:43:36.291Z,78
2019-05-21T16:49:04.964Z,77
2019-05-21T16:54:33.705Z,77
2019-05-21T17:00:02.766Z,77
2019-05-21T17:05:31.156Z,77
2019-05-21T17:10:59.649Z,78
2019-05-21T17:16:27.421Z,78
2019-05-21T17:22:03.712Z,78
2019-05-21T17:27:23.532Z,78
2019-05-21T17:32:51.287Z,79
2019-05-21T17:38:18.767Z,79
2019-05-21T17:43:47.365Z,79
2019-05-21T17:49:17.319Z,80
2019-05-21T17:54:56.011Z,80
2019-05-21T18:00:11.154Z,80
2019-05-21T18:05:39.445Z,80
2019-05-21T18:11:08.036Z,81
2019-05-21T18:16:36.532Z,81
2019-05-21T18:27:33.473Z,81
2019-05-21T18:33:01.125Z,82
2019-05-21T18:38:29.448Z,82
2019-05-21T18:43:57.885Z,82
2019-05-21T18:49:27.623Z,82
2019-05-21T18:54:52.932Z,82
2019-05-21T19:00:21.507Z,82
2019-05-21T19:05:49.791Z,82
2019-05-21T19:11:18.060Z,83
2019-05-21T19:16:45.451Z,82
2019-05-21T19:22:12.906Z,83
2019-05-21T19:27:41.382Z,82
2019-05-21T19:33:10.448Z,82
2019-05-21T19:38:38.190Z,82
2019-05-21T19:44:06.543Z,82
2019-05-21T19:49:34.885Z,83
2019-05-21T19:55:02.680Z,83
2019-05-21T20:00:29.563Z,83
2019-05-21T20:05:58.102Z,84
2019-05-21T20:11:27.923Z,85
2019-05-21T20:16:54.790Z,85
2019-05-21T20:22:22.019Z,86
2019-05-21T20:27:50.359Z,86
2019-05-21T20:33:18.752Z,86
2019-05-21T20:38:46.924Z,85
2019-05-21T20:44:15.271Z,85
2019-05-21T20:49:42.689Z,85
2019-05-21T21:00:38.304Z,86
2019-05-21T21:06:05.549Z,86
2019-05-21T21:11:33.236Z,86
2019-05-21T21:17:01.294Z,85
2019-05-21T21:22:29.509Z,85
2019-05-21T21:27:56.789Z,86
2019-05-21T21:33:25.031Z,86
2019-05-21T21:38:53.009Z,86
2019-05-21T21:44:33.017Z,86
2019-05-21T21:49:46.819Z,86
2019-05-21T21:55:15.163Z,86
2019-05-21T22:00:42.481Z,86
2019-05-21T22:06:09.724Z,86
2019-05-21T22:11:37.959Z,86
2019-05-21T22:17:05.466Z,86
2019-05-21T22:28:00.535Z,88
2019-05-21T22:33:27.920Z,88
2019-05-21T22:38:54.983Z,89
2019-05-21T22:44:22.283Z,89
2019-05-21T22:49:50.441Z,89
2019-05-21T22:55:18.532Z,89
2019-05-21T23:00:45.780Z,88
2019-05-21T23:06:14.463Z,88
2019-05-21T23:11:40.342Z,88
2019-05-21T23:17:07.376Z,89
2019-05-21T23:22:34.396Z,89
2019-05-21T23:28:05.079Z,89
2019-05-21T23:33:29.788Z,89
2019-05-21T23:38:56.919Z,89
2019-05-21T23:44:25.128Z,89
2019-05-21T23:49:54.587Z,89
2019-05-21T23:55:20.770Z,89
